Decoded Metar for CYCY (CLYDE RIVER in NU, CANADA) (IATA:YCY) | Meteo·Mobile Aviation Weather
aviador You're here:

CYCY Decoded Metar

CLYDE RIVER in NU, CANADA
Report Time2018-11-14 11:00:00
UTC Time2018-11-14 11:29:12
Flight Rules mvfr MVFR
WindVRB at 02 kt
Visibility9999 m
Phenomena:N/A
Clouds:Overcast 011 Hf
Expected CloudBase > 800 ft AGL from Temp-Dew spread
Ceiling1,100 ft
Temp-21°C (ISA -36)
Dew Point-23°C (84% RH)
AAT-25.4°C
QNH1017 hPa
Density Alt-4,642 ft
Elevation85 ft
Report Wrong Elevation
Raw Report
CYCY 141100Z AUTO VRB02KT 9SM OVC011 M21/M23 A3003 RMK SLP174=

Extra information for CYCY:More info

Metar Taf Metar & Taf Last 4 Metars F.Rules Stats Wind Profile Meteogram Temp Stats Airport Information Weather charts Add Link Nearby VenuesMetar ALERT Operation Metar Decoded Social comments